createdAt,value
2017-12-25T00:01:58.846Z,5.60
2017-12-25T00:04:33.525Z,5.70
2017-12-25T00:07:07.291Z,5.60
2017-12-25T00:09:40.964Z,5.70
2017-12-25T00:12:14.786Z,5.70
2017-12-25T00:14:48.608Z,5.60
2017-12-25T00:17:23.085Z,5.70
2017-12-25T00:19:57.741Z,5.70
2017-12-25T00:22:31.407Z,5.70
2017-12-25T00:25:05.229Z,5.60
2017-12-25T00:27:39.057Z,5.70
2017-12-25T00:30:12.860Z,5.70
2017-12-25T00:32:47.461Z,5.60
2017-12-25T00:35:21.910Z,5.70
2017-12-25T00:37:56.307Z,5.70
2017-12-25T00:40:29.957Z,5.70
2017-12-25T00:43:03.752Z,5.70
2017-12-25T00:45:37.538Z,5.70
2017-12-25T00:48:11.153Z,5.70
2017-12-25T00:50:45.581Z,5.60
2017-12-25T00:53:19.209Z,5.60
2017-12-25T00:55:53.293Z,5.70
2017-12-25T00:58:27.084Z,5.70
2017-12-25T01:01:00.767Z,5.60
2017-12-25T01:03:34.560Z,5.60
2017-12-25T01:06:08.277Z,5.70
2017-12-25T01:08:42.044Z,5.60
2017-12-25T01:11:15.931Z,5.70
2017-12-25T01:13:49.726Z,5.70
2017-12-25T01:16:24.248Z,5.60
2017-12-25T01:18:57.980Z,5.60
2017-12-25T01:21:32.576Z,5.70
2017-12-25T01:24:06.254Z,5.70
2017-12-25T01:26:40.001Z,5.70
2017-12-25T01:29:13.752Z,5.60
2017-12-25T01:31:48.288Z,5.60
2017-12-25T01:34:22.018Z,5.50
2017-12-25T01:36:55.956Z,5.60
2017-12-25T01:39:29.672Z,5.70
2017-12-25T01:42:03.352Z,5.80
2017-12-25T01:44:37.131Z,5.90
2017-12-25T01:47:10.960Z,5.90
2017-12-25T01:49:45.490Z,5.90
2017-12-25T01:52:19.292Z,5.90
2017-12-25T01:54:53.132Z,5.90
2017-12-25T01:57:46.848Z,5.90
2017-12-25T02:00:25.197Z,5.90
2017-12-25T02:02:59.064Z,5.90
2017-12-25T02:05:51.532Z,5.90
2017-12-25T02:08:26.948Z,5.90
2017-12-25T02:11:00.676Z,5.90
2017-12-25T02:13:35.253Z,5.70
2017-12-25T02:16:09.160Z,5.70
2017-12-25T02:18:42.888Z,5.60
2017-12-25T02:21:16.896Z,5.60
2017-12-25T02:23:50.872Z,5.60
2017-12-25T02:26:25.691Z,5.60
2017-12-25T02:29:00.361Z,5.30
2017-12-25T02:31:34.173Z,5.30
2017-12-25T02:34:08.829Z,5.40
2017-12-25T02:36:42.512Z,5.40
2017-12-25T02:39:16.348Z,5.40
2017-12-25T02:41:50.104Z,5.40
2017-12-25T02:44:24.012Z,5.40
2017-12-25T02:46:57.809Z,5.40
2017-12-25T02:49:31.647Z,5.30
2017-12-25T02:52:05.444Z,5.20
2017-12-25T02:54:39.279Z,5.30
2017-12-25T02:57:13.849Z,5.30
2017-12-25T02:59:47.633Z,5.30
2017-12-25T03:02:21.469Z,5.30
2017-12-25T03:04:55.304Z,5.30
2017-12-25T03:07:29.222Z,5.30
2017-12-25T03:10:02.993Z,5.30
2017-12-25T03:12:36.833Z,5.30
2017-12-25T03:15:10.628Z,5.30
2017-12-25T03:17:44.349Z,5.30
2017-12-25T03:20:19.269Z,5.20
2017-12-25T03:22:53.006Z,5.20
2017-12-25T03:25:27.588Z,5.20
2017-12-25T03:28:02.068Z,5.20
2017-12-25T03:30:35.848Z,5.20
2017-12-25T03:33:10.305Z,5.10
2017-12-25T03:35:44.981Z,5.10
2017-12-25T03:38:18.561Z,5.10
2017-12-25T03:40:53.188Z,5.10
2017-12-25T03:43:26.888Z,5.10
2017-12-25T03:46:00.829Z,5.00
2017-12-25T03:48:35.385Z,4.90
2017-12-25T03:51:09.444Z,4.90
2017-12-25T03:53:43.267Z,5.00
2017-12-25T03:56:17.081Z,5.00
2017-12-25T03:58:51.739Z,4.80
2017-12-25T04:01:25.496Z,4.80
2017-12-25T04:03:59.309Z,4.90
2017-12-25T04:06:33.904Z,5.00
2017-12-25T04:09:08.494Z,4.90
2017-12-25T04:11:42.252Z,4.90
2017-12-25T04:14:16.054Z,4.90
2017-12-25T04:16:50.705Z,4.90
2017-12-25T04:19:25.187Z,4.90
2017-12-25T04:21:58.831Z,4.90
2017-12-25T04:24:32.621Z,4.90
2017-12-25T04:27:07.231Z,4.80
2017-12-25T04:29:40.943Z,4.80
2017-12-25T04:32:14.730Z,4.70
2017-12-25T04:34:49.330Z,4.70
2017-12-25T04:37:23.377Z,4.70
2017-12-25T04:39:57.156Z,4.70
2017-12-25T04:42:30.972Z,4.70
2017-12-25T04:45:04.756Z,4.80
2017-12-25T04:47:38.601Z,4.80
2017-12-25T04:50:13.204Z,4.80
2017-12-25T04:52:46.943Z,4.80
2017-12-25T04:55:20.741Z,4.80
2017-12-25T04:57:54.512Z,4.80
2017-12-25T05:00:28.411Z,4.80
2017-12-25T05:03:02.199Z,4.70
2017-12-25T05:05:36.018Z,4.70
2017-12-25T05:08:09.805Z,4.70
2017-12-25T05:10:43.573Z,4.60
2017-12-25T05:13:17.310Z,4.50
2017-12-25T05:15:51.138Z,4.60
2017-12-25T05:18:25.027Z,4.60
2017-12-25T05:20:58.812Z,4.70
2017-12-25T05:23:32.641Z,4.70
2017-12-25T05:26:06.304Z,4.60
2017-12-25T05:28:40.151Z,4.50
2017-12-25T05:31:13.911Z,4.50
2017-12-25T05:33:47.731Z,4.60
2017-12-25T05:36:21.498Z,4.50
2017-12-25T05:38:55.645Z,4.60
2017-12-25T05:41:29.464Z,4.40
2017-12-25T05:44:04.793Z,4.30
2017-12-25T05:46:38.648Z,4.30
2017-12-25T05:49:12.533Z,4.30
2017-12-25T05:51:46.215Z,4.10
2017-12-25T05:54:20.345Z,4.10
2017-12-25T05:56:54.896Z,4.20
2017-12-25T05:59:28.976Z,4.20
2017-12-25T06:02:03.566Z,4.30
2017-12-25T06:04:39.136Z,4.40
2017-12-25T06:07:13.739Z,4.40
2017-12-25T06:09:48.378Z,4.30
2017-12-25T06:12:22.084Z,4.30
2017-12-25T06:14:56.608Z,4.00
2017-12-25T06:17:30.217Z,4.00
2017-12-25T06:20:04.709Z,4.10
2017-12-25T06:22:38.491Z,4.10
2017-12-25T06:25:13.128Z,4.20
2017-12-25T06:27:47.198Z,4.20
2017-12-25T06:30:20.924Z,4.10
2017-12-25T06:32:55.473Z,4.10
2017-12-25T06:35:29.351Z,4.10
2017-12-25T06:38:03.126Z,4.10
2017-12-25T06:40:37.025Z,4.10
2017-12-25T06:43:10.900Z,4.20
2017-12-25T06:45:44.724Z,4.10
2017-12-25T06:48:18.896Z,4.20
2017-12-25T06:50:53.529Z,4.20
2017-12-25T06:53:27.309Z,4.20
2017-12-25T06:56:01.044Z,4.20
2017-12-25T06:58:34.924Z,4.20
2017-12-25T07:01:08.600Z,4.10
2017-12-25T07:03:42.522Z,4.00
2017-12-25T07:06:16.257Z,3.90
2017-12-25T07:08:50.030Z,3.90
2017-12-25T07:11:23.840Z,3.80
2017-12-25T07:13:57.662Z,3.90
2017-12-25T07:16:32.278Z,4.00
2017-12-25T07:19:05.961Z,3.90
2017-12-25T07:21:39.753Z,3.90
2017-12-25T07:24:13.616Z,3.90
2017-12-25T07:26:47.420Z,3.90
2017-12-25T07:29:22.028Z,3.90
2017-12-25T07:31:56.402Z,3.90
2017-12-25T07:34:30.220Z,3.90
2017-12-25T07:37:03.997Z,3.90
2017-12-25T07:39:38.884Z,3.80
2017-12-25T07:42:12.720Z,3.80
2017-12-25T07:44:46.904Z,3.70
2017-12-25T07:47:20.597Z,3.60
2017-12-25T07:49:55.221Z,3.50
2017-12-25T07:52:28.882Z,3.50
2017-12-25T07:55:02.756Z,3.50
2017-12-25T07:57:37.320Z,3.60
2017-12-25T08:00:12.040Z,3.50
2017-12-25T08:02:45.854Z,3.50
2017-12-25T08:05:19.645Z,3.60
2017-12-25T08:07:53.451Z,3.70
2017-12-25T08:10:27.996Z,3.80
2017-12-25T08:13:01.849Z,3.70
2017-12-25T08:15:35.604Z,3.90
2017-12-25T08:18:09.738Z,3.90
2017-12-25T08:20:43.542Z,3.90
2017-12-25T08:23:18.164Z,4.00
2017-12-25T08:25:51.889Z,4.00
2017-12-25T08:28:25.688Z,3.90
2017-12-25T08:30:59.296Z,3.90
2017-12-25T08:33:33.268Z,3.90
2017-12-25T08:36:07.081Z,3.90
2017-12-25T08:38:41.028Z,3.80
2017-12-25T08:41:15.618Z,3.70
2017-12-25T08:43:50.278Z,3.60
2017-12-25T08:46:23.991Z,3.60
2017-12-25T08:48:58.593Z,3.70
2017-12-25T08:51:32.313Z,3.70
2017-12-25T08:54:06.516Z,3.70
2017-12-25T08:56:40.289Z,3.80
2017-12-25T08:59:13.993Z,3.70
2017-12-25T09:01:47.820Z,3.60
2017-12-25T09:04:22.447Z,3.30
2017-12-25T09:06:56.376Z,3.30
2017-12-25T09:09:30.980Z,3.30
2017-12-25T09:12:04.689Z,3.30
2017-12-25T09:14:38.540Z,3.50
2017-12-25T09:17:13.212Z,3.50
2017-12-25T09:19:47.245Z,3.50
2017-12-25T09:22:21.016Z,3.70
2017-12-25T09:24:55.576Z,3.80
2017-12-25T09:27:29.373Z,3.70
2017-12-25T09:30:03.216Z,3.60
2017-12-25T09:32:37.762Z,3.30
2017-12-25T09:35:11.642Z,3.30
2017-12-25T09:37:45.705Z,3.40
2017-12-25T09:40:20.353Z,3.60
2017-12-25T09:42:54.286Z,3.60
2017-12-25T09:45:28.076Z,3.80
2017-12-25T09:48:02.117Z,3.80
2017-12-25T09:50:37.425Z,3.90
2017-12-25T09:53:12.000Z,4.20
2017-12-25T09:55:45.934Z,4.20
2017-12-25T09:58:20.536Z,4.30
2017-12-25T10:00:54.421Z,4.30
2017-12-25T10:03:28.971Z,4.10
2017-12-25T10:06:02.923Z,4.10
2017-12-25T10:08:36.840Z,4.20
2017-12-25T10:11:10.785Z,4.80
2017-12-25T10:13:46.085Z,7.00
2017-12-25T10:16:19.729Z,7.10
2017-12-25T10:18:54.387Z,7.70
2017-12-25T10:21:29.640Z,8.10
2017-12-25T10:24:03.449Z,8.10
2017-12-25T10:26:37.308Z,8.30
2017-12-25T10:29:11.865Z,7.50
2017-12-25T10:31:45.828Z,7.40
2017-12-25T10:34:20.379Z,7.00
2017-12-25T10:36:54.316Z,7.00
2017-12-25T10:39:28.170Z,7.50
2017-12-25T10:42:01.988Z,7.80
2017-12-25T10:44:37.591Z,7.80
2017-12-25T10:47:11.389Z,7.80
2017-12-25T10:49:45.140Z,7.40
2017-12-25T10:52:18.908Z,7.50
2017-12-25T10:54:53.020Z,7.80
2017-12-25T10:57:26.853Z,7.90
2017-12-25T11:00:00.739Z,7.70
2017-12-25T11:02:34.481Z,7.90
2017-12-25T11:05:08.217Z,7.90
2017-12-25T11:07:42.860Z,8.10
2017-12-25T11:10:18.173Z,7.80
2017-12-25T11:12:53.087Z,8.00
2017-12-25T11:15:27.664Z,8.30
2017-12-25T11:18:01.431Z,8.30
2017-12-25T11:20:36.077Z,8.20
2017-12-25T11:23:09.937Z,8.20
2017-12-25T11:25:43.845Z,8.60
2017-12-25T11:28:18.420Z,9.20
2017-12-25T11:30:52.224Z,9.10
2017-12-25T11:33:26.639Z,9.20
2017-12-25T11:36:01.196Z,9.10
2017-12-25T11:38:34.888Z,9.10
2017-12-25T11:41:09.821Z,8.60
2017-12-25T11:43:43.508Z,8.70
2017-12-25T11:46:17.206Z,9.00
2017-12-25T11:48:51.137Z,9.00
2017-12-25T11:51:24.922Z,9.50
2017-12-25T11:53:59.448Z,9.30
2017-12-25T11:56:34.073Z,8.80
2017-12-25T11:59:08.632Z,8.50
2017-12-25T12:01:43.277Z,8.20
2017-12-25T12:04:17.720Z,7.80
2017-12-25T12:06:52.800Z,7.40
2017-12-25T12:09:27.386Z,7.40
2017-12-25T12:12:01.172Z,7.40
2017-12-25T12:14:35.741Z,7.20
2017-12-25T12:17:09.312Z,7.20
2017-12-25T12:19:43.880Z,7.10
2017-12-25T12:22:17.659Z,7.10
2017-12-25T12:24:51.336Z,7.10
2017-12-25T12:27:25.183Z,7.10
2017-12-25T12:29:58.769Z,6.90
2017-12-25T12:32:32.535Z,6.80
2017-12-25T12:35:07.079Z,6.70
2017-12-25T12:37:40.878Z,6.70
2017-12-25T12:40:15.344Z,6.70
2017-12-25T12:42:49.236Z,6.70
2017-12-25T12:45:23.064Z,6.90
2017-12-25T12:47:56.919Z,6.90
2017-12-25T12:50:30.578Z,7.00
2017-12-25T12:53:04.349Z,6.90
2017-12-25T12:55:38.088Z,6.90
2017-12-25T12:58:12.180Z,6.90
2017-12-25T13:00:45.888Z,6.90
2017-12-25T13:03:20.012Z,7.00
2017-12-25T13:05:53.761Z,7.00
2017-12-25T13:08:28.334Z,7.00
2017-12-25T13:11:02.844Z,7.10
2017-12-25T13:13:36.687Z,7.10
2017-12-25T13:16:10.514Z,7.10
2017-12-25T13:18:44.293Z,7.00
2017-12-25T13:21:18.397Z,7.00
2017-12-25T13:23:52.993Z,6.90
2017-12-25T13:26:26.868Z,6.90
2017-12-25T13:29:01.522Z,6.90
2017-12-25T13:31:35.289Z,6.90
2017-12-25T13:34:09.017Z,7.00
2017-12-25T13:36:43.588Z,6.90
2017-12-25T13:39:17.356Z,6.90
2017-12-25T13:41:51.641Z,6.90
2017-12-25T13:44:25.576Z,6.90
2017-12-25T13:46:59.256Z,6.90
2017-12-25T13:49:33.008Z,7.00
2017-12-25T13:52:07.661Z,6.90
2017-12-25T13:54:42.239Z,6.90
2017-12-25T13:57:16.296Z,6.90
2017-12-25T13:59:50.203Z,7.00
2017-12-25T14:02:24.817Z,6.90
2017-12-25T14:04:58.526Z,6.90
2017-12-25T14:07:32.345Z,6.90
2017-12-25T14:10:06.160Z,6.90
2017-12-25T14:12:40.657Z,6.70
2017-12-25T14:15:15.144Z,6.60
2017-12-25T14:17:49.717Z,6.60
2017-12-25T14:20:24.184Z,6.60
2017-12-25T14:22:57.856Z,6.60
2017-12-25T14:25:31.652Z,6.60
2017-12-25T14:28:05.369Z,6.60
2017-12-25T14:30:39.270Z,6.60
2017-12-25T14:33:13.054Z,6.60
2017-12-25T14:35:47.671Z,6.50
2017-12-25T14:38:21.362Z,6.50
2017-12-25T14:43:53.068Z,6.40
2017-12-25T14:46:27.588Z,6.40
2017-12-25T14:49:02.086Z,6.30
2017-12-25T14:51:36.848Z,6.30
2017-12-25T14:54:10.556Z,6.20
2017-12-25T14:56:44.393Z,6.20
2017-12-25T14:59:19.167Z,6.10
2017-12-25T15:01:53.793Z,6.00
2017-12-25T15:04:27.555Z,6.00
2017-12-25T15:07:01.339Z,6.00
2017-12-25T15:09:35.832Z,5.90
2017-12-25T15:12:10.001Z,5.90
2017-12-25T15:14:43.908Z,5.90
2017-12-25T15:17:17.705Z,5.90
2017-12-25T15:19:52.272Z,5.70
2017-12-25T15:22:26.899Z,5.70
2017-12-25T15:25:01.507Z,5.60
2017-12-25T15:27:35.245Z,5.60
2017-12-25T15:30:09.824Z,5.50
2017-12-25T15:32:43.678Z,5.40
2017-12-25T15:35:18.289Z,5.40
2017-12-25T15:37:53.136Z,5.30
2017-12-25T15:40:27.716Z,5.30
2017-12-25T15:43:01.449Z,5.20
2017-12-25T15:45:35.996Z,5.20
2017-12-25T15:48:10.571Z,5.20
2017-12-25T15:50:45.126Z,5.10
2017-12-25T15:53:18.880Z,5.10
2017-12-25T15:55:52.961Z,5.10
2017-12-25T15:58:26.732Z,5.00
2017-12-25T16:01:00.430Z,4.90
2017-12-25T16:03:34.271Z,4.90
2017-12-25T16:06:08.150Z,4.90
2017-12-25T16:08:42.698Z,4.80
2017-12-25T16:11:17.537Z,4.70
2017-12-25T16:13:51.143Z,4.70
2017-12-25T16:16:24.838Z,4.70
2017-12-25T16:18:58.545Z,4.70
2017-12-25T16:21:33.069Z,4.60
2017-12-25T16:24:06.772Z,4.60
2017-12-25T16:26:40.548Z,4.50
2017-12-25T16:29:15.080Z,4.50
2017-12-25T16:31:48.808Z,4.50
2017-12-25T16:34:22.428Z,4.50
2017-12-25T16:36:56.257Z,4.50
2017-12-25T16:39:30.019Z,4.60
2017-12-25T16:42:03.852Z,4.60
2017-12-25T16:44:38.415Z,4.50
2017-12-25T16:47:12.970Z,4.60
2017-12-25T16:49:46.776Z,4.60
2017-12-25T16:52:23.883Z,4.60
2017-12-25T16:54:57.638Z,4.60
2017-12-25T16:57:31.459Z,4.60
2017-12-25T17:00:06.004Z,4.80
2017-12-25T17:02:39.779Z,4.80
2017-12-25T17:05:13.507Z,4.80
2017-12-25T17:07:48.108Z,4.80
2017-12-25T17:10:21.841Z,4.80
2017-12-25T17:12:55.765Z,4.80
2017-12-25T17:15:29.721Z,4.70
2017-12-25T17:18:04.266Z,4.70
2017-12-25T17:20:38.743Z,4.70
2017-12-25T17:23:12.456Z,4.70
2017-12-25T17:25:46.385Z,4.60
2017-12-25T17:28:20.232Z,4.50
2017-12-25T17:30:54.003Z,4.40
2017-12-25T17:33:27.858Z,4.30
2017-12-25T17:36:01.583Z,4.30
2017-12-25T17:38:36.238Z,4.30
2017-12-25T17:41:09.939Z,4.30
2017-12-25T17:43:45.316Z,4.20
2017-12-25T17:46:19.089Z,4.20
2017-12-25T17:48:52.980Z,4.10
2017-12-25T17:51:26.593Z,4.00
2017-12-25T17:54:00.501Z,4.00
2017-12-25T17:56:34.436Z,4.00
2017-12-25T17:59:09.264Z,4.00
2017-12-25T18:01:43.858Z,4.00
2017-12-25T18:04:18.452Z,4.00
2017-12-25T18:06:52.920Z,4.00
2017-12-25T18:09:26.657Z,4.00
2017-12-25T18:12:00.385Z,3.90
2017-12-25T18:14:34.176Z,3.90
2017-12-25T18:17:07.853Z,3.90
2017-12-25T18:19:41.676Z,3.90
2017-12-25T18:22:15.496Z,3.80
2017-12-25T18:24:49.407Z,3.80
2017-12-25T18:27:24.077Z,3.70
2017-12-25T18:29:57.864Z,3.70
2017-12-25T18:32:31.725Z,3.70
2017-12-25T18:35:06.443Z,3.60
2017-12-25T18:37:40.268Z,3.60
2017-12-25T18:40:14.870Z,3.60
2017-12-25T18:42:48.528Z,3.60
2017-12-25T18:45:23.105Z,3.50
2017-12-25T18:47:56.784Z,3.50
2017-12-25T18:50:31.320Z,3.40
2017-12-25T18:53:05.954Z,3.40
2017-12-25T18:55:39.613Z,3.40
2017-12-25T18:58:14.162Z,3.40
2017-12-25T19:00:47.758Z,3.40
2017-12-25T19:03:21.796Z,3.40
2017-12-25T19:05:55.579Z,3.30
2017-12-25T19:08:29.453Z,3.40
2017-12-25T19:11:04.061Z,3.40
2017-12-25T19:13:38.596Z,3.40
2017-12-25T19:16:12.345Z,3.40
2017-12-25T19:18:46.100Z,3.40
2017-12-25T19:21:19.797Z,3.30
2017-12-25T19:23:53.620Z,3.30
2017-12-25T19:26:27.303Z,3.30
2017-12-25T19:29:01.155Z,3.30
2017-12-25T19:31:34.868Z,3.30
2017-12-25T19:34:08.735Z,3.30
2017-12-25T19:36:42.459Z,3.30
2017-12-25T19:39:16.650Z,3.30
2017-12-25T19:41:50.524Z,3.20
2017-12-25T19:44:24.441Z,3.20
2017-12-25T19:46:58.111Z,3.20
2017-12-25T19:49:32.062Z,3.10
2017-12-25T19:52:05.873Z,3.10
2017-12-25T19:54:39.729Z,3.10
2017-12-25T19:57:13.490Z,3.10
2017-12-25T19:59:47.233Z,3.10
2017-12-25T20:02:21.648Z,3.10
2017-12-25T20:04:55.425Z,3.00
2017-12-25T20:07:29.245Z,3.00
2017-12-25T20:10:03.916Z,3.00
2017-12-25T20:12:37.755Z,3.00
2017-12-25T20:15:11.479Z,3.00
2017-12-25T20:17:46.112Z,3.00
2017-12-25T20:20:20.092Z,3.00
2017-12-25T20:22:53.789Z,3.00
2017-12-25T20:25:27.740Z,3.00
2017-12-25T20:28:01.530Z,3.00
2017-12-25T20:30:35.189Z,3.00
2017-12-25T20:33:09.023Z,2.90
2017-12-25T20:35:42.864Z,2.90
2017-12-25T20:38:17.503Z,2.90
2017-12-25T20:40:52.089Z,2.80
2017-12-25T20:43:26.614Z,2.80
2017-12-25T20:46:00.372Z,2.80
2017-12-25T20:48:34.286Z,2.80
2017-12-25T20:51:08.088Z,2.80
2017-12-25T20:53:41.835Z,2.80
2017-12-25T20:56:15.616Z,2.80
2017-12-25T20:58:49.775Z,2.90
2017-12-25T21:01:23.554Z,2.80
2017-12-25T21:03:57.533Z,2.80
2017-12-25T21:06:31.988Z,2.80
2017-12-25T21:09:06.662Z,2.90
2017-12-25T21:11:40.427Z,2.80
2017-12-25T21:14:14.963Z,2.90
2017-12-25T21:16:49.516Z,3.00
2017-12-25T21:19:23.305Z,2.90
2017-12-25T21:21:58.159Z,3.00
2017-12-25T21:24:31.975Z,3.00
2017-12-25T21:27:05.801Z,3.00
2017-12-25T21:29:39.556Z,2.90
2017-12-25T21:32:13.547Z,2.90
2017-12-25T21:34:48.144Z,2.80
2017-12-25T21:37:22.808Z,2.80
2017-12-25T21:39:57.405Z,2.80
2017-12-25T21:42:31.544Z,2.80
2017-12-25T21:45:05.299Z,2.80
2017-12-25T21:47:39.960Z,2.90
2017-12-25T21:50:13.784Z,2.80
2017-12-25T21:52:47.547Z,2.90
2017-12-25T21:55:21.396Z,2.90
2017-12-25T21:57:55.195Z,2.80
2017-12-25T22:00:29.164Z,2.80
2017-12-25T22:03:02.948Z,2.80
2017-12-25T22:05:36.689Z,2.80
2017-12-25T22:08:10.664Z,2.80
2017-12-25T22:10:44.418Z,2.80
2017-12-25T22:13:18.350Z,2.80
2017-12-25T22:15:52.159Z,2.80
2017-12-25T22:18:25.999Z,2.80
2017-12-25T22:21:00.495Z,2.90
2017-12-25T22:23:34.368Z,2.90
2017-12-25T22:26:08.108Z,2.80
2017-12-25T22:28:42.104Z,2.80
2017-12-25T22:31:15.947Z,2.80
2017-12-25T22:33:49.820Z,2.80
2017-12-25T22:36:24.311Z,2.80
2017-12-25T22:38:58.136Z,2.70
2017-12-25T22:41:31.970Z,2.70
2017-12-25T22:44:05.656Z,2.70
2017-12-25T22:46:39.708Z,2.70
2017-12-25T22:49:14.211Z,2.70
2017-12-25T22:51:49.116Z,2.70
2017-12-25T22:54:23.369Z,2.70
2017-12-25T22:56:57.099Z,2.70
2017-12-25T22:59:30.937Z,2.70
2017-12-25T23:02:05.538Z,2.70
2017-12-25T23:04:39.405Z,2.60
2017-12-25T23:07:13.960Z,2.70
2017-12-25T23:09:47.795Z,2.60
2017-12-25T23:12:21.634Z,2.60
2017-12-25T23:14:56.199Z,2.60
2017-12-25T23:17:30.655Z,2.50
2017-12-25T23:20:04.458Z,2.50
2017-12-25T23:22:38.546Z,2.60
2017-12-25T23:25:12.453Z,2.60
2017-12-25T23:27:46.332Z,2.50
2017-12-25T23:30:20.103Z,2.50
2017-12-25T23:32:54.679Z,2.40
2017-12-25T23:35:28.550Z,2.40
2017-12-25T23:38:02.428Z,2.40
2017-12-25T23:40:37.170Z,2.40
2017-12-25T23:43:11.755Z,2.40
2017-12-25T23:45:45.898Z,2.40
2017-12-25T23:48:19.699Z,2.40
2017-12-25T23:50:53.454Z,2.40
2017-12-25T23:53:27.219Z,2.30
2017-12-25T23:56:01.051Z,2.20
2017-12-25T23:58:35.713Z,2.20
